sensor_id;sensor_type;location;lat;lon;timestamp;temperature;humidity
44305;DHT22;30019;50.576;8.568;2022-07-29T00:01:19;20.40;66.30
44305;DHT22;30019;50.576;8.568;2022-07-29T00:03:44;20.40;66.50
44305;DHT22;30019;50.576;8.568;2022-07-29T00:06:10;20.40;65.70
44305;DHT22;30019;50.576;8.568;2022-07-29T00:08:36;20.40;65.60
44305;DHT22;30019;50.576;8.568;2022-07-29T00:11:01;20.40;64.90
44305;DHT22;30019;50.576;8.568;2022-07-29T00:13:27;20.40;65.50
44305;DHT22;30019;50.576;8.568;2022-07-29T00:15:52;20.40;65.50
44305;DHT22;30019;50.576;8.568;2022-07-29T00:18:18;20.40;66.60
44305;DHT22;30019;50.576;8.568;2022-07-29T00:20:44;20.40;65.60
44305;DHT22;30019;50.576;8.568;2022-07-29T00:23:09;20.40;64.90
44305;DHT22;30019;50.576;8.568;2022-07-29T00:25:35;20.40;64.90
44305;DHT22;30019;50.576;8.568;2022-07-29T00:28:00;20.30;64.90
44305;DHT22;30019;50.576;8.568;2022-07-29T00:30:26;20.40;65.00
44305;DHT22;30019;50.576;8.568;2022-07-29T00:32:51;20.30;64.70
44305;DHT22;30019;50.576;8.568;2022-07-29T00:35:17;20.40;64.80
44305;DHT22;30019;50.576;8.568;2022-07-29T00:38:01;20.30;66.10
44305;DHT22;30019;50.576;8.568;2022-07-29T00:40:27;20.20;67.80
44305;DHT22;30019;50.576;8.568;2022-07-29T00:42:52;20.20;67.50
44305;DHT22;30019;50.576;8.568;2022-07-29T00:45:19;20.00;68.10
44305;DHT22;30019;50.576;8.568;2022-07-29T00:47:45;20.10;67.70
44305;DHT22;30019;50.576;8.568;2022-07-29T00:50:12;20.10;68.00
44305;DHT22;30019;50.576;8.568;2022-07-29T00:52:39;20.10;70.20
44305;DHT22;30019;50.576;8.568;2022-07-29T00:55:07;20.20;69.30
44305;DHT22;30019;50.576;8.568;2022-07-29T00:57:34;20.20;69.10
44305;DHT22;30019;50.576;8.568;2022-07-29T01:00:00;20.20;68.40
44305;DHT22;30019;50.576;8.568;2022-07-29T01:02:25;20.10;69.00
44305;DHT22;30019;50.576;8.568;2022-07-29T01:04:52;20.10;69.30
44305;DHT22;30019;50.576;8.568;2022-07-29T01:07:18;20.00;69.50
44305;DHT22;30019;50.576;8.568;2022-07-29T01:09:45;19.90;69.00
44305;DHT22;30019;50.576;8.568;2022-07-29T01:12:12;19.90;71.10
44305;DHT22;30019;50.576;8.568;2022-07-29T01:14:39;19.90;70.80
44305;DHT22;30019;50.576;8.568;2022-07-29T01:19:56;20.00;73.20
44305;DHT22;30019;50.576;8.568;2022-07-29T01:22:27;20.00;75.80
44305;DHT22;30019;50.576;8.568;2022-07-29T01:27:51;20.00;75.40
44305;DHT22;30019;50.576;8.568;2022-07-29T01:30:27;19.90;79.30
44305;DHT22;30019;50.576;8.568;2022-07-29T01:33:01;19.70;84.20
44305;DHT22;30019;50.576;8.568;2022-07-29T01:35:48;19.50;90.00
44305;DHT22;30019;50.576;8.568;2022-07-29T01:38:19;19.30;91.50
44305;DHT22;30019;50.576;8.568;2022-07-29T01:40:56;19.10;92.40
44305;DHT22;30019;50.576;8.568;2022-07-29T01:43:31;19.00;96.50
44305;DHT22;30019;50.576;8.568;2022-07-29T01:46:02;18.80;97.70
44305;DHT22;30019;50.576;8.568;2022-07-29T01:48:47;18.50;97.70
44305;DHT22;30019;50.576;8.568;2022-07-29T01:51:29;18.10;99.90
44305;DHT22;30019;50.576;8.568;2022-07-29T01:54:06;17.70;99.90
44305;DHT22;30019;50.576;8.568;2022-07-29T01:56:35;17.40;99.90
44305;DHT22;30019;50.576;8.568;2022-07-29T01:59:03;17.00;99.90
44305;DHT22;30019;50.576;8.568;2022-07-29T02:01:31;16.90;99.90
44305;DHT22;30019;50.576;8.568;2022-07-29T02:03:59;16.70;99.90
44305;DHT22;30019;50.576;8.568;2022-07-29T07:07:53;20.50;99.90
44305;DHT22;30019;50.576;8.568;2022-07-29T07:10:18;20.50;99.90
44305;DHT22;30019;50.576;8.568;2022-07-29T07:12:44;20.70;99.90
44305;DHT22;30019;50.576;8.568;2022-07-29T07:15:10;20.70;99.90
44305;DHT22;30019;50.576;8.568;2022-07-29T07:17:35;21.00;99.90
44305;DHT22;30019;50.576;8.568;2022-07-29T07:20:01;21.20;99.90
44305;DHT22;30019;50.576;8.568;2022-07-29T07:22:27;21.30;99.90
44305;DHT22;30019;50.576;8.568;2022-07-29T07:24:52;21.40;98.60
44305;DHT22;30019;50.576;8.568;2022-07-29T07:27:18;21.30;99.40
44305;DHT22;30019;50.576;8.568;2022-07-29T07:29:43;21.10;97.40
44305;DHT22;30019;50.576;8.568;2022-07-29T07:32:09;21.00;98.70
44305;DHT22;30019;50.576;8.568;2022-07-29T07:34:34;21.00;98.00
44305;DHT22;30019;50.576;8.568;2022-07-29T07:37:00;21.20;98.50
44305;DHT22;30019;50.576;8.568;2022-07-29T07:39:25;21.40;98.30
44305;DHT22;30019;50.576;8.568;2022-07-29T07:41:52;21.40;97.20
44305;DHT22;30019;50.576;8.568;2022-07-29T07:44:17;21.30;95.70
44305;DHT22;30019;50.576;8.568;2022-07-29T07:46:43;21.40;97.20
44305;DHT22;30019;50.576;8.568;2022-07-29T07:49:10;21.30;96.60
44305;DHT22;30019;50.576;8.568;2022-07-29T07:51:36;21.40;96.20
44305;DHT22;30019;50.576;8.568;2022-07-29T07:54:01;21.20;96.70
44305;DHT22;30019;50.576;8.568;2022-07-29T07:56:27;21.10;97.00
44305;DHT22;30019;50.576;8.568;2022-07-29T07:58:53;21.20;96.00
44305;DHT22;30019;50.576;8.568;2022-07-29T08:01:18;21.20;96.20
44305;DHT22;30019;50.576;8.568;2022-07-29T08:03:46;21.30;95.90
44305;DHT22;30019;50.576;8.568;2022-07-29T08:06:12;21.50;95.30
44305;DHT22;30019;50.576;8.568;2022-07-29T08:08:37;21.70;94.60
44305;DHT22;30019;50.576;8.568;2022-07-29T08:11:03;22.10;95.60
44305;DHT22;30019;50.576;8.568;2022-07-29T08:13:29;22.30;95.10
44305;DHT22;30019;50.576;8.568;2022-07-29T08:15:55;22.40;95.30
44305;DHT22;30019;50.576;8.568;2022-07-29T08:18:26;22.50;93.90
44305;DHT22;30019;50.576;8.568;2022-07-29T08:20:52;22.60;94.60
44305;DHT22;30019;50.576;8.568;2022-07-29T08:23:18;22.50;93.40
44305;DHT22;30019;50.576;8.568;2022-07-29T08:25:44;22.20;93.30
44305;DHT22;30019;50.576;8.568;2022-07-29T08:28:10;22.00;93.60
44305;DHT22;30019;50.576;8.568;2022-07-29T08:30:35;21.80;93.50
44305;DHT22;30019;50.576;8.568;2022-07-29T08:33:01;21.80;94.90
44305;DHT22;30019;50.576;8.568;2022-07-29T08:35:27;22.00;94.50
44305;DHT22;30019;50.576;8.568;2022-07-29T08:37:53;22.10;93.60
44305;DHT22;30019;50.576;8.568;2022-07-29T08:40:19;22.40;93.70
44305;DHT22;30019;50.576;8.568;2022-07-29T08:42:46;22.60;93.90
44305;DHT22;30019;50.576;8.568;2022-07-29T08:45:12;23.00;94.10
44305;DHT22;30019;50.576;8.568;2022-07-29T08:47:40;23.30;93.10
44305;DHT22;30019;50.576;8.568;2022-07-29T08:50:09;23.80;92.20
44305;DHT22;30019;50.576;8.568;2022-07-29T08:52:37;23.80;92.30
44305;DHT22;30019;50.576;8.568;2022-07-29T08:55:04;23.90;91.50
44305;DHT22;30019;50.576;8.568;2022-07-29T08:57:31;23.70;91.20
44305;DHT22;30019;50.576;8.568;2022-07-29T08:59:59;23.50;91.50
44305;DHT22;30019;50.576;8.568;2022-07-29T09:02:28;23.20;91.80
44305;DHT22;30019;50.576;8.568;2022-07-29T09:04:54;23.10;92.20
44305;DHT22;30019;50.576;8.568;2022-07-29T09:07:19;23.10;92.30
44305;DHT22;30019;50.576;8.568;2022-07-29T09:09:45;23.20;91.00
44305;DHT22;30019;50.576;8.568;2022-07-29T09:12:11;23.40;91.20
44305;DHT22;30019;50.576;8.568;2022-07-29T09:14:38;23.60;90.30
44305;DHT22;30019;50.576;8.568;2022-07-29T09:17:04;23.40;91.20
44305;DHT22;30019;50.576;8.568;2022-07-29T09:19:32;23.70;89.30
44305;DHT22;30019;50.576;8.568;2022-07-29T09:22:01;23.20;89.00
44305;DHT22;30019;50.576;8.568;2022-07-29T09:24:37;23.50;89.90
44305;DHT22;30019;50.576;8.568;2022-07-29T09:27:11;23.50;90.30
44305;DHT22;30019;50.576;8.568;2022-07-29T09:29:43;23.50;89.00
44305;DHT22;30019;50.576;8.568;2022-07-29T09:32:09;23.90;90.20
44305;DHT22;30019;50.576;8.568;2022-07-29T09:34:35;24.30;88.40
44305;DHT22;30019;50.576;8.568;2022-07-29T09:37:02;24.60;86.80
44305;DHT22;30019;50.576;8.568;2022-07-29T09:39:33;24.90;87.90
44305;DHT22;30019;50.576;8.568;2022-07-29T09:42:02;25.20;86.50
44305;DHT22;30019;50.576;8.568;2022-07-29T09:44:50;25.10;85.00
44305;DHT22;30019;50.576;8.568;2022-07-29T09:47:17;25.30;84.20
44305;DHT22;30019;50.576;8.568;2022-07-29T09:49:57;25.50;84.70
44305;DHT22;30019;50.576;8.568;2022-07-29T09:52:27;25.50;83.90
44305;DHT22;30019;50.576;8.568;2022-07-29T09:55:02;25.80;84.90
44305;DHT22;30019;50.576;8.568;2022-07-29T09:57:29;26.10;82.30
44305;DHT22;30019;50.576;8.568;2022-07-29T10:00:03;26.50;80.70
44305;DHT22;30019;50.576;8.568;2022-07-29T10:02:32;26.70;79.20
44305;DHT22;30019;50.576;8.568;2022-07-29T10:04:58;26.60;76.90
44305;DHT22;30019;50.576;8.568;2022-07-29T10:07:25;26.70;76.60
44305;DHT22;30019;50.576;8.568;2022-07-29T10:09:55;27.10;79.80
44305;DHT22;30019;50.576;8.568;2022-07-29T10:12:21;27.30;77.20
44305;DHT22;30019;50.576;8.568;2022-07-29T10:14:47;27.80;77.00
44305;DHT22;30019;50.576;8.568;2022-07-29T10:17:13;27.70;75.60
44305;DHT22;30019;50.576;8.568;2022-07-29T10:19:40;29.00;73.40
44305;DHT22;30019;50.576;8.568;2022-07-29T10:22:08;29.80;68.70
44305;DHT22;30019;50.576;8.568;2022-07-29T10:24:35;29.70;67.40
44305;DHT22;30019;50.576;8.568;2022-07-29T10:27:03;30.60;66.70
44305;DHT22;30019;50.576;8.568;2022-07-29T10:29:29;31.00;64.20
44305;DHT22;30019;50.576;8.568;2022-07-29T10:32:58;32.30;62.40
44305;DHT22;30019;50.576;8.568;2022-07-29T10:38:11;32.60;57.40
44305;DHT22;30019;50.576;8.568;2022-07-29T10:40:58;33.10;61.50
44305;DHT22;30019;50.576;8.568;2022-07-29T10:43:46;34.10;57.30
44305;DHT22;30019;50.576;8.568;2022-07-29T10:46:13;33.60;55.00
44305;DHT22;30019;50.576;8.568;2022-07-29T10:52:06;33.00;59.80
44305;DHT22;30019;50.576;8.568;2022-07-29T10:57:33;33.30;58.00
44305;DHT22;30019;50.576;8.568;2022-07-29T11:05:04;33.80;59.00
44305;DHT22;30019;50.576;8.568;2022-07-29T11:07:32;33.40;55.70
44305;DHT22;30019;50.576;8.568;2022-07-29T11:15:10;35.70;54.80
44305;DHT22;30019;50.576;8.568;2022-07-29T11:23:27;36.80;51.90
44305;DHT22;30019;50.576;8.568;2022-07-29T11:28:52;35.60;55.70
44305;DHT22;30019;50.576;8.568;2022-07-29T11:31:39;33.90;56.90
44305;DHT22;30019;50.576;8.568;2022-07-29T11:34:29;33.50;56.90
44305;DHT22;30019;50.576;8.568;2022-07-29T11:39:47;33.20;56.20
44305;DHT22;30019;50.576;8.568;2022-07-29T11:47:34;33.40;58.10
44305;DHT22;30019;50.576;8.568;2022-07-29T11:50:03;32.90;57.30
44305;DHT22;30019;50.576;8.568;2022-07-29T11:52:36;32.60;57.20
44305;DHT22;30019;50.576;8.568;2022-07-29T11:55:04;32.90;59.20
44305;DHT22;30019;50.576;8.568;2022-07-29T11:57:30;33.60;57.30
44305;DHT22;30019;50.576;8.568;2022-07-29T11:59:57;33.70;56.70
44305;DHT22;30019;50.576;8.568;2022-07-29T12:02:23;33.90;56.30
44305;DHT22;30019;50.576;8.568;2022-07-29T12:07:18;32.90;57.00
44305;DHT22;30019;50.576;8.568;2022-07-29T12:09:50;33.00;58.50
44305;DHT22;30019;50.576;8.568;2022-07-29T12:12:17;32.40;57.50
44305;DHT22;30019;50.576;8.568;2022-07-29T12:14:43;31.80;58.40
44305;DHT22;30019;50.576;8.568;2022-07-29T12:17:32;31.70;58.60
44305;DHT22;30019;50.576;8.568;2022-07-29T12:20:00;31.10;61.10
44305;DHT22;30019;50.576;8.568;2022-07-29T12:22:32;30.80;61.70
44305;DHT22;30019;50.576;8.568;2022-07-29T12:25:13;30.70;62.20
44305;DHT22;30019;50.576;8.568;2022-07-29T12:27:41;31.00;61.10
44305;DHT22;30019;50.576;8.568;2022-07-29T12:30:10;31.10;60.60
44305;DHT22;30019;50.576;8.568;2022-07-29T12:32:41;31.40;60.80
44305;DHT22;30019;50.576;8.568;2022-07-29T12:35:13;31.70;59.60
44305;DHT22;30019;50.576;8.568;2022-07-29T12:37:40;31.30;59.70
44305;DHT22;30019;50.576;8.568;2022-07-29T12:40:07;31.40;59.30
44305;DHT22;30019;50.576;8.568;2022-07-29T12:42:34;31.20;59.70
44305;DHT22;30019;50.576;8.568;2022-07-29T12:45:00;31.50;59.90
44305;DHT22;30019;50.576;8.568;2022-07-29T12:47:25;31.60;59.70
44305;DHT22;30019;50.576;8.568;2022-07-29T12:50:07;31.30;60.40
44305;DHT22;30019;50.576;8.568;2022-07-29T12:52:34;31.00;60.40
44305;DHT22;30019;50.576;8.568;2022-07-29T12:55:00;30.80;61.20
44305;DHT22;30019;50.576;8.568;2022-07-29T12:57:27;31.00;60.10
44305;DHT22;30019;50.576;8.568;2022-07-29T13:00:24;31.10;59.80
44305;DHT22;30019;50.576;8.568;2022-07-29T13:02:57;31.30;62.00
44305;DHT22;30019;50.576;8.568;2022-07-29T13:05:23;31.30;60.70
44305;DHT22;30019;50.576;8.568;2022-07-29T13:07:50;31.70;60.70
44305;DHT22;30019;50.576;8.568;2022-07-29T13:10:21;31.80;59.70
44305;DHT22;30019;50.576;8.568;2022-07-29T13:13:06;31.80;58.70
44305;DHT22;30019;50.576;8.568;2022-07-29T13:15:35;31.60;59.70
44305;DHT22;30019;50.576;8.568;2022-07-29T13:18:00;31.60;60.60
44305;DHT22;30019;50.576;8.568;2022-07-29T13:20:28;31.30;60.20
44305;DHT22;30019;50.576;8.568;2022-07-29T13:22:58;30.80;59.70
44305;DHT22;30019;50.576;8.568;2022-07-29T13:25:31;30.50;61.90
44305;DHT22;30019;50.576;8.568;2022-07-29T13:27:58;31.10;60.90
44305;DHT22;30019;50.576;8.568;2022-07-29T13:30:24;31.10;59.40
44305;DHT22;30019;50.576;8.568;2022-07-29T13:32:51;31.40;60.00
44305;DHT22;30019;50.576;8.568;2022-07-29T13:35:18;31.30;58.60
44305;DHT22;30019;50.576;8.568;2022-07-29T13:37:44;31.00;59.80
44305;DHT22;30019;50.576;8.568;2022-07-29T13:40:11;29.90;60.20
44305;DHT22;30019;50.576;8.568;2022-07-29T13:42:37;29.00;64.00
44305;DHT22;30019;50.576;8.568;2022-07-29T13:45:03;28.80;66.00
44305;DHT22;30019;50.576;8.568;2022-07-29T13:47:30;29.20;65.30
44305;DHT22;30019;50.576;8.568;2022-07-29T13:49:55;29.40;64.60
44305;DHT22;30019;50.576;8.568;2022-07-29T13:52:21;29.50;64.20
44305;DHT22;30019;50.576;8.568;2022-07-29T13:54:47;29.30;63.40
44305;DHT22;30019;50.576;8.568;2022-07-29T13:57:13;29.00;64.30
44305;DHT22;30019;50.576;8.568;2022-07-29T13:59:40;29.00;65.90
44305;DHT22;30019;50.576;8.568;2022-07-29T14:02:06;28.90;66.30
44305;DHT22;30019;50.576;8.568;2022-07-29T14:04:32;29.00;66.30
44305;DHT22;30019;50.576;8.568;2022-07-29T14:06:58;29.10;66.80
44305;DHT22;30019;50.576;8.568;2022-07-29T14:09:24;29.10;67.40
44305;DHT22;30019;50.576;8.568;2022-07-29T14:11:49;29.00;67.30
44305;DHT22;30019;50.576;8.568;2022-07-29T14:14:16;28.80;67.50
44305;DHT22;30019;50.576;8.568;2022-07-29T14:16:42;28.70;69.20
44305;DHT22;30019;50.576;8.568;2022-07-29T14:19:08;28.60;70.40
44305;DHT22;30019;50.576;8.568;2022-07-29T14:21:33;28.40;69.10
44305;DHT22;30019;50.576;8.568;2022-07-29T14:24:00;28.30;69.00
44305;DHT22;30019;50.576;8.568;2022-07-29T14:26:25;28.10;68.70
44305;DHT22;30019;50.576;8.568;2022-07-29T14:28:51;28.00;69.40
44305;DHT22;30019;50.576;8.568;2022-07-29T14:31:16;27.80;69.50
44305;DHT22;30019;50.576;8.568;2022-07-29T14:33:42;27.70;71.50
44305;DHT22;30019;50.576;8.568;2022-07-29T14:36:08;27.60;71.80
44305;DHT22;30019;50.576;8.568;2022-07-29T14:38:34;27.50;71.90
44305;DHT22;30019;50.576;8.568;2022-07-29T14:41:00;27.40;78.60
44305;DHT22;30019;50.576;8.568;2022-07-29T14:43:26;27.20;75.90
44305;DHT22;30019;50.576;8.568;2022-07-29T14:45:52;27.10;76.30
44305;DHT22;30019;50.576;8.568;2022-07-29T14:48:17;26.90;76.20
44305;DHT22;30019;50.576;8.568;2022-07-29T14:50:43;26.90;76.80
44305;DHT22;30019;50.576;8.568;2022-07-29T14:53:08;26.90;74.90
44305;DHT22;30019;50.576;8.568;2022-07-29T14:55:34;26.80;74.60
44305;DHT22;30019;50.576;8.568;2022-07-29T14:58:00;26.80;74.40
44305;DHT22;30019;50.576;8.568;2022-07-29T15:00:26;26.80;73.50
44305;DHT22;30019;50.576;8.568;2022-07-29T15:02:52;26.80;72.70
44305;DHT22;30019;50.576;8.568;2022-07-29T15:05:17;26.80;76.10
44305;DHT22;30019;50.576;8.568;2022-07-29T15:07:43;26.80;76.80
44305;DHT22;30019;50.576;8.568;2022-07-29T15:10:09;26.70;77.70
44305;DHT22;30019;50.576;8.568;2022-07-29T15:12:35;26.60;79.20
44305;DHT22;30019;50.576;8.568;2022-07-29T15:15:00;26.40;82.90
44305;DHT22;30019;50.576;8.568;2022-07-29T15:17:26;26.30;88.80
44305;DHT22;30019;50.576;8.568;2022-07-29T15:19:52;25.50;92.60
44305;DHT22;30019;50.576;8.568;2022-07-29T15:22:18;24.40;94.50
44305;DHT22;30019;50.576;8.568;2022-07-29T15:24:43;23.20;97.80
44305;DHT22;30019;50.576;8.568;2022-07-29T15:27:09;22.60;99.90
44305;DHT22;30019;50.576;8.568;2022-07-29T15:29:40;22.10;99.90
44305;DHT22;30019;50.576;8.568;2022-07-29T15:32:06;21.70;99.90
44305;DHT22;30019;50.576;8.568;2022-07-29T15:34:31;21.30;99.90
44305;DHT22;30019;50.576;8.568;2022-07-29T15:36:57;20.90;99.90
44305;DHT22;30019;50.576;8.568;2022-07-29T15:39:22;20.70;99.90
44305;DHT22;30019;50.576;8.568;2022-07-29T15:41:48;20.50;99.90
44305;DHT22;30019;50.576;8.568;2022-07-29T15:44:14;20.40;99.90
44305;DHT22;30019;50.576;8.568;2022-07-29T15:46:40;20.30;99.90
44305;DHT22;30019;50.576;8.568;2022-07-29T15:49:24;20.40;99.90
44305;DHT22;30019;50.576;8.568;2022-07-29T15:51:55;20.50;99.90
44305;DHT22;30019;50.576;8.568;2022-07-29T15:54:21;20.70;99.90
44305;DHT22;30019;50.576;8.568;2022-07-29T15:56:46;21.00;99.90
44305;DHT22;30019;50.576;8.568;2022-07-29T15:59:12;21.30;99.90
44305;DHT22;30019;50.576;8.568;2022-07-29T16:01:37;21.80;99.90
44305;DHT22;30019;50.576;8.568;2022-07-29T16:31:11;23.80;99.90
44305;DHT22;30019;50.576;8.568;2022-07-29T16:33:37;24.00;99.90
44305;DHT22;30019;50.576;8.568;2022-07-29T16:36:03;23.90;99.90
44305;DHT22;30019;50.576;8.568;2022-07-29T16:38:29;23.90;99.90
44305;DHT22;30019;50.576;8.568;2022-07-29T16:40:55;23.80;99.90
44305;DHT22;30019;50.576;8.568;2022-07-29T16:43:20;23.80;99.90
44305;DHT22;30019;50.576;8.568;2022-07-29T16:45:46;24.00;99.90
44305;DHT22;30019;50.576;8.568;2022-07-29T16:48:13;24.10;99.90
44305;DHT22;30019;50.576;8.568;2022-07-29T16:50:38;24.20;99.90
44305;DHT22;30019;50.576;8.568;2022-07-29T16:53:05;24.10;99.90
44305;DHT22;30019;50.576;8.568;2022-07-29T16:55:30;24.30;99.90
44305;DHT22;30019;50.576;8.568;2022-07-29T16:57:56;24.60;99.90
44305;DHT22;30019;50.576;8.568;2022-07-29T17:00:22;24.50;99.90
44305;DHT22;30019;50.576;8.568;2022-07-29T17:02:48;24.30;99.90
44305;DHT22;30019;50.576;8.568;2022-07-29T17:05:14;24.20;99.90
44305;DHT22;30019;50.576;8.568;2022-07-29T17:07:40;24.10;99.90
44305;DHT22;30019;50.576;8.568;2022-07-29T17:10:08;24.10;99.90
44305;DHT22;30019;50.576;8.568;2022-07-29T17:12:36;24.10;99.90
44305;DHT22;30019;50.576;8.568;2022-07-29T17:15:03;24.00;99.90
44305;DHT22;30019;50.576;8.568;2022-07-29T17:17:29;24.10;99.90
44305;DHT22;30019;50.576;8.568;2022-07-29T17:19:54;24.00;99.90
44305;DHT22;30019;50.576;8.568;2022-07-29T17:22:20;24.00;99.90
44305;DHT22;30019;50.576;8.568;2022-07-29T17:24:47;24.00;99.90
44305;DHT22;30019;50.576;8.568;2022-07-29T17:27:14;23.90;99.90
44305;DHT22;30019;50.576;8.568;2022-07-29T17:29:40;23.90;99.90
44305;DHT22;30019;50.576;8.568;2022-07-29T17:32:07;23.80;99.90
44305;DHT22;30019;50.576;8.568;2022-07-29T17:34:36;23.70;99.90
44305;DHT22;30019;50.576;8.568;2022-07-29T17:37:03;23.70;99.90
44305;DHT22;30019;50.576;8.568;2022-07-29T17:39:28;23.50;99.90
44305;DHT22;30019;50.576;8.568;2022-07-29T17:41:54;23.50;99.90
44305;DHT22;30019;50.576;8.568;2022-07-29T17:44:20;23.40;99.90
44305;DHT22;30019;50.576;8.568;2022-07-29T17:46:45;23.30;99.90
44305;DHT22;30019;50.576;8.568;2022-07-29T17:49:11;23.30;99.90
44305;DHT22;30019;50.576;8.568;2022-07-29T17:51:37;23.10;99.90
44305;DHT22;30019;50.576;8.568;2022-07-29T17:54:03;22.90;99.90
44305;DHT22;30019;50.576;8.568;2022-07-29T17:56:29;22.80;99.90
44305;DHT22;30019;50.576;8.568;2022-07-29T17:58:55;22.80;99.90
44305;DHT22;30019;50.576;8.568;2022-07-29T18:01:21;22.90;99.90
44305;DHT22;30019;50.576;8.568;2022-07-29T18:03:46;22.90;99.90
44305;DHT22;30019;50.576;8.568;2022-07-29T18:06:12;22.80;99.90
44305;DHT22;30019;50.576;8.568;2022-07-29T18:08:38;22.70;99.90
44305;DHT22;30019;50.576;8.568;2022-07-29T18:11:04;22.40;99.90
44305;DHT22;30019;50.576;8.568;2022-07-29T18:13:30;22.20;99.90
44305;DHT22;30019;50.576;8.568;2022-07-29T18:15:56;22.10;99.90
44305;DHT22;30019;50.576;8.568;2022-07-29T18:18:22;22.00;99.90
44305;DHT22;30019;50.576;8.568;2022-07-29T18:20:48;22.00;99.90
44305;DHT22;30019;50.576;8.568;2022-07-29T18:23:13;22.00;99.90
44305;DHT22;30019;50.576;8.568;2022-07-29T18:25:39;21.90;99.90
44305;DHT22;30019;50.576;8.568;2022-07-29T18:28:06;22.00;99.90
44305;DHT22;30019;50.576;8.568;2022-07-29T18:30:32;22.00;99.90
44305;DHT22;30019;50.576;8.568;2022-07-29T18:32:59;21.90;99.90
44305;DHT22;30019;50.576;8.568;2022-07-29T18:35:24;22.00;99.90
44305;DHT22;30019;50.576;8.568;2022-07-29T18:37:50;22.00;99.90
44305;DHT22;30019;50.576;8.568;2022-07-29T18:40:19;22.00;99.90
44305;DHT22;30019;50.576;8.568;2022-07-29T18:42:46;22.00;99.90
44305;DHT22;30019;50.576;8.568;2022-07-29T18:45:11;22.00;99.90
44305;DHT22;30019;50.576;8.568;2022-07-29T18:47:37;22.00;99.90
44305;DHT22;30019;50.576;8.568;2022-07-29T18:50:03;22.10;99.90
44305;DHT22;30019;50.576;8.568;2022-07-29T18:52:29;22.00;99.90
44305;DHT22;30019;50.576;8.568;2022-07-29T18:54:55;22.00;99.90
44305;DHT22;30019;50.576;8.568;2022-07-29T18:57:20;21.90;99.90
44305;DHT22;30019;50.576;8.568;2022-07-29T18:59:46;21.80;99.90
44305;DHT22;30019;50.576;8.568;2022-07-29T19:02:11;21.70;99.90
44305;DHT22;30019;50.576;8.568;2022-07-29T19:04:37;21.60;99.90
44305;DHT22;30019;50.576;8.568;2022-07-29T19:07:02;21.50;99.90
44305;DHT22;30019;50.576;8.568;2022-07-29T19:09:29;21.50;99.90
44305;DHT22;30019;50.576;8.568;2022-07-29T19:11:55;21.50;99.90
44305;DHT22;30019;50.576;8.568;2022-07-29T19:14:21;21.30;99.90
44305;DHT22;30019;50.576;8.568;2022-07-29T19:16:46;21.30;99.90
44305;DHT22;30019;50.576;8.568;2022-07-29T19:19:12;21.30;99.90
44305;DHT22;30019;50.576;8.568;2022-07-29T19:21:39;21.30;99.90
44305;DHT22;30019;50.576;8.568;2022-07-29T19:24:05;21.30;99.90
44305;DHT22;30019;50.576;8.568;2022-07-29T19:26:31;21.30;99.90
44305;DHT22;30019;50.576;8.568;2022-07-29T19:28:57;21.20;99.90
44305;DHT22;30019;50.576;8.568;2022-07-29T19:31:23;21.10;99.90
44305;DHT22;30019;50.576;8.568;2022-07-29T19:33:49;21.00;99.90
44305;DHT22;30019;50.576;8.568;2022-07-29T19:36:14;20.70;99.90
44305;DHT22;30019;50.576;8.568;2022-07-29T19:38:40;20.60;99.90
44305;DHT22;30019;50.576;8.568;2022-07-29T19:41:05;20.60;99.90
44305;DHT22;30019;50.576;8.568;2022-07-29T19:43:31;20.60;99.90
44305;DHT22;30019;50.576;8.568;2022-07-29T19:45:58;20.50;99.90
44305;DHT22;30019;50.576;8.568;2022-07-29T19:48:24;20.40;99.90
44305;DHT22;30019;50.576;8.568;2022-07-29T19:50:50;20.40;99.90
44305;DHT22;30019;50.576;8.568;2022-07-29T19:53:15;20.40;99.90
44305;DHT22;30019;50.576;8.568;2022-07-29T19:55:41;20.50;99.90
44305;DHT22;30019;50.576;8.568;2022-07-29T19:58:07;20.50;99.90
44305;DHT22;30019;50.576;8.568;2022-07-29T20:00:33;20.50;99.90
44305;DHT22;30019;50.576;8.568;2022-07-29T20:02:59;20.60;99.90
44305;DHT22;30019;50.576;8.568;2022-07-29T20:05:25;20.60;99.90
44305;DHT22;30019;50.576;8.568;2022-07-29T20:07:53;20.60;99.90
44305;DHT22;30019;50.576;8.568;2022-07-29T20:10:18;20.70;99.90
44305;DHT22;30019;50.576;8.568;2022-07-29T20:12:44;20.70;99.90
44305;DHT22;30019;50.576;8.568;2022-07-29T20:15:10;20.60;99.90
44305;DHT22;30019;50.576;8.568;2022-07-29T20:17:37;20.60;99.90
44305;DHT22;30019;50.576;8.568;2022-07-29T20:20:03;20.60;99.90
44305;DHT22;30019;50.576;8.568;2022-07-29T20:22:29;20.60;99.90
44305;DHT22;30019;50.576;8.568;2022-07-29T20:24:55;20.60;99.90
44305;DHT22;30019;50.576;8.568;2022-07-29T20:27:21;20.60;99.90
44305;DHT22;30019;50.576;8.568;2022-07-29T20:29:46;20.50;99.90
44305;DHT22;30019;50.576;8.568;2022-07-29T20:32:12;20.50;99.90
44305;DHT22;30019;50.576;8.568;2022-07-29T20:34:38;20.40;99.90
44305;DHT22;30019;50.576;8.568;2022-07-29T20:37:05;20.40;99.90
44305;DHT22;30019;50.576;8.568;2022-07-29T20:39:35;20.30;99.90
44305;DHT22;30019;50.576;8.568;2022-07-29T20:42:00;20.30;99.90
44305;DHT22;30019;50.576;8.568;2022-07-29T20:44:26;20.30;99.90
44305;DHT22;30019;50.576;8.568;2022-07-29T20:46:52;20.10;99.90
44305;DHT22;30019;50.576;8.568;2022-07-29T20:49:17;20.10;99.90
44305;DHT22;30019;50.576;8.568;2022-07-29T20:51:43;20.10;99.90
44305;DHT22;30019;50.576;8.568;2022-07-29T20:54:08;20.10;99.90
44305;DHT22;30019;50.576;8.568;2022-07-29T20:56:34;20.10;99.90
44305;DHT22;30019;50.576;8.568;2022-07-29T20:59:00;20.20;99.90
44305;DHT22;30019;50.576;8.568;2022-07-29T21:01:25;20.20;99.90
44305;DHT22;30019;50.576;8.568;2022-07-29T21:03:51;20.20;99.90
44305;DHT22;30019;50.576;8.568;2022-07-29T21:06:16;20.20;99.90
44305;DHT22;30019;50.576;8.568;2022-07-29T21:08:42;20.00;99.90
44305;DHT22;30019;50.576;8.568;2022-07-29T21:11:08;19.90;99.90
44305;DHT22;30019;50.576;8.568;2022-07-29T21:13:33;19.80;99.90
44305;DHT22;30019;50.576;8.568;2022-07-29T21:16:04;19.60;99.90
44305;DHT22;30019;50.576;8.568;2022-07-29T21:18:40;19.50;99.90
44305;DHT22;30019;50.576;8.568;2022-07-29T21:21:08;19.30;99.90
44305;DHT22;30019;50.576;8.568;2022-07-29T21:23:34;19.20;99.90
44305;DHT22;30019;50.576;8.568;2022-07-29T21:26:00;19.20;99.90
44305;DHT22;30019;50.576;8.568;2022-07-29T21:28:26;19.20;99.90
44305;DHT22;30019;50.576;8.568;2022-07-29T21:30:56;19.30;99.90
44305;DHT22;30019;50.576;8.568;2022-07-29T21:33:23;19.20;99.90
44305;DHT22;30019;50.576;8.568;2022-07-29T21:35:49;19.10;99.90
44305;DHT22;30019;50.576;8.568;2022-07-29T21:38:15;18.90;99.90
44305;DHT22;30019;50.576;8.568;2022-07-29T21:40:42;18.80;99.90
44305;DHT22;30019;50.576;8.568;2022-07-29T21:43:08;18.70;99.90
44305;DHT22;30019;50.576;8.568;2022-07-29T21:45:34;18.60;99.90